createdAt,value
2023-03-29T00:02:50.422Z,99.90
2023-03-29T00:05:23.143Z,99.90
2023-03-29T00:07:54.003Z,99.90
2023-03-29T00:10:24.023Z,99.90
2023-03-29T00:12:52.671Z,99.90
2023-03-29T00:15:21.761Z,99.90
2023-03-29T00:17:51.685Z,99.90
2023-03-29T00:20:20.044Z,99.90
2023-03-29T00:22:48.141Z,99.90
2023-03-29T00:25:16.413Z,99.90
2023-03-29T00:27:44.600Z,99.90
2023-03-29T00:30:14.940Z,99.90
2023-03-29T00:32:43.481Z,99.90
2023-03-29T00:35:13.271Z,99.90
2023-03-29T00:37:41.394Z,99.90
2023-03-29T00:40:12.819Z,99.90
2023-03-29T00:42:46.168Z,99.90
2023-03-29T00:45:25.204Z,99.90
2023-03-29T00:47:57.654Z,99.90
2023-03-29T00:50:34.155Z,99.90
2023-03-29T00:53:08.594Z,99.90
2023-03-29T00:55:42.875Z,99.90
2023-03-29T00:58:15.229Z,99.90
2023-03-29T01:00:53.447Z,99.90
2023-03-29T01:03:29.063Z,99.90
2023-03-29T01:06:05.969Z,99.90
2023-03-29T01:08:42.007Z,99.90
2023-03-29T01:11:18.804Z,99.90
2023-03-29T01:13:56.660Z,99.90
2023-03-29T01:16:30.364Z,99.90
2023-03-29T01:18:59.357Z,99.90
2023-03-29T01:21:36.400Z,99.90
2023-03-29T01:24:18.110Z,99.90
2023-03-29T01:27:00.916Z,99.90
2023-03-29T01:29:38.796Z,99.90
2023-03-29T01:32:15.806Z,99.90
2023-03-29T01:34:52.913Z,99.90
2023-03-29T01:37:26.556Z,99.90
2023-03-29T01:39:55.337Z,99.90
2023-03-29T01:42:41.136Z,99.90
2023-03-29T01:45:24.009Z,99.90
2023-03-29T01:48:03.369Z,99.90
2023-03-29T01:50:43.526Z,99.90
2023-03-29T01:53:19.279Z,99.90
2023-03-29T01:55:53.914Z,99.90
2023-03-29T01:58:27.820Z,99.90
2023-03-29T02:00:59.742Z,99.90
2023-03-29T02:03:33.277Z,99.90
2023-03-29T02:06:04.924Z,99.90
2023-03-29T02:08:33.471Z,99.90
2023-03-29T02:11:01.976Z,99.90
2023-03-29T02:13:30.355Z,99.90
2023-03-29T02:16:03.113Z,99.90
2023-03-29T02:18:32.076Z,99.90
2023-03-29T02:21:00.996Z,99.90
2023-03-29T02:23:34.896Z,99.90
2023-03-29T02:26:06.737Z,99.90
2023-03-29T02:28:35.610Z,99.90
2023-03-29T02:31:17.371Z,99.90
2023-03-29T02:34:04.149Z,99.90
2023-03-29T02:36:40.594Z,99.90
2023-03-29T02:39:14.049Z,99.90
2023-03-29T02:41:46.150Z,99.90
2023-03-29T02:44:19.515Z,99.90
2023-03-29T02:46:52.102Z,99.90
2023-03-29T02:49:21.112Z,99.90
2023-03-29T02:51:53.721Z,99.90
2023-03-29T02:54:26.089Z,99.90
2023-03-29T02:57:00.235Z,99.90
2023-03-29T02:59:31.130Z,99.90
2023-03-29T03:02:01.304Z,99.90
2023-03-29T03:04:29.731Z,99.90
2023-03-29T03:06:57.910Z,99.90
2023-03-29T03:09:26.068Z,99.90
2023-03-29T03:11:54.478Z,99.90
2023-03-29T03:14:23.315Z,99.90
2023-03-29T03:16:52.862Z,99.90
2023-03-29T03:19:22.748Z,99.90
2023-03-29T03:21:51.078Z,99.90
2023-03-29T03:24:19.227Z,99.90
2023-03-29T03:26:50.108Z,99.90
2023-03-29T03:29:19.118Z,99.90
2023-03-29T03:31:47.237Z,99.90
2023-03-29T03:34:15.457Z,99.90
2023-03-29T03:36:47.211Z,99.90
2023-03-29T03:39:15.666Z,99.90
2023-03-29T03:41:44.107Z,99.90
2023-03-29T03:44:13.347Z,99.90
2023-03-29T03:46:41.629Z,99.90
2023-03-29T03:49:09.981Z,99.90
2023-03-29T03:51:38.309Z,99.90
2023-03-29T03:54:08.202Z,99.90
2023-03-29T03:56:36.414Z,99.90
2023-03-29T03:59:04.777Z,99.90
2023-03-29T04:01:33.941Z,99.90
2023-03-29T04:04:04.061Z,99.90
2023-03-29T04:06:32.569Z,99.90
2023-03-29T04:09:00.657Z,99.90
2023-03-29T04:11:30.773Z,99.90
2023-03-29T04:13:59.146Z,99.90
2023-03-29T04:16:29.125Z,99.90
2023-03-29T04:18:57.575Z,99.90
2023-03-29T04:21:26.177Z,99.90
2023-03-29T04:23:54.300Z,99.90
2023-03-29T04:26:22.927Z,99.90
2023-03-29T04:28:52.531Z,99.90
2023-03-29T04:31:20.990Z,99.90
2023-03-29T04:33:49.250Z,99.90
2023-03-29T04:36:17.573Z,99.90
2023-03-29T04:38:47.717Z,99.90
2023-03-29T04:41:16.377Z,99.90
2023-03-29T04:43:46.624Z,99.90
2023-03-29T04:46:17.020Z,99.90
2023-03-29T04:48:45.264Z,99.90
2023-03-29T04:51:13.554Z,99.90
2023-03-29T04:53:41.749Z,99.90
2023-03-29T04:56:10.652Z,99.90
2023-03-29T04:58:38.899Z,99.90
2023-03-29T05:01:07.525Z,99.90
2023-03-29T05:03:37.044Z,99.90
2023-03-29T05:06:07.198Z,99.90
2023-03-29T05:08:38.912Z,99.90
2023-03-29T05:11:08.090Z,99.90
2023-03-29T05:13:37.242Z,99.90
2023-03-29T05:16:06.878Z,99.90
2023-03-29T05:18:36.631Z,99.90
2023-03-29T05:21:05.477Z,99.90
2023-03-29T05:23:34.380Z,99.90
2023-03-29T05:26:03.921Z,99.90
2023-03-29T05:28:33.883Z,99.90
2023-03-29T05:31:04.468Z,99.90
2023-03-29T05:33:33.726Z,99.90
2023-03-29T05:36:05.751Z,99.90
2023-03-29T05:38:34.013Z,99.90
2023-03-29T05:41:02.854Z,99.90
2023-03-29T05:43:31.594Z,99.90
2023-03-29T05:46:00.283Z,99.90
2023-03-29T05:48:28.847Z,99.90
2023-03-29T05:50:58.046Z,99.90
2023-03-29T05:53:28.562Z,99.90
2023-03-29T05:55:57.162Z,99.90
2023-03-29T05:58:26.542Z,99.90
2023-03-29T06:00:55.248Z,99.90
2023-03-29T06:03:27.312Z,99.90
2023-03-29T06:06:02.545Z,99.90
2023-03-29T06:08:32.855Z,99.90
2023-03-29T06:11:04.846Z,99.90
2023-03-29T06:13:34.641Z,99.90
2023-03-29T06:16:04.249Z,99.90
2023-03-29T06:18:33.257Z,99.90
2023-03-29T06:21:03.132Z,99.90
2023-03-29T06:23:33.334Z,99.90
2023-03-29T06:26:01.669Z,99.90
2023-03-29T06:28:29.862Z,99.90
2023-03-29T06:31:03.331Z,99.90
2023-03-29T06:33:34.112Z,99.90
2023-03-29T06:36:02.270Z,99.90
2023-03-29T06:38:30.904Z,99.90
2023-03-29T06:41:05.103Z,99.90
2023-03-29T06:43:34.725Z,99.90
2023-03-29T06:46:03.061Z,99.90
2023-03-29T06:48:31.696Z,99.90
2023-03-29T06:50:59.876Z,99.90
2023-03-29T06:53:28.148Z,99.90
2023-03-29T06:55:56.403Z,99.90
2023-03-29T06:58:26.172Z,99.90
2023-03-29T07:00:54.892Z,99.90
2023-03-29T07:03:23.539Z,99.90
2023-03-29T07:05:52.201Z,99.90
2023-03-29T07:08:21.445Z,99.90
2023-03-29T07:10:52.873Z,99.90
2023-03-29T07:13:21.044Z,99.90
2023-03-29T07:15:50.534Z,98.90
2023-03-29T07:18:19.171Z,96.50
2023-03-29T07:20:48.409Z,98.00
2023-03-29T07:23:18.019Z,98.00
2023-03-29T07:25:46.992Z,97.10
2023-03-29T07:28:15.107Z,93.00
2023-03-29T07:30:43.257Z,91.10
2023-03-29T07:33:13.287Z,84.90
2023-03-29T07:35:43.825Z,87.50
2023-03-29T07:38:12.141Z,78.50
2023-03-29T07:40:40.310Z,80.00
2023-03-29T07:43:10.933Z,74.50
2023-03-29T07:45:40.627Z,67.70
2023-03-29T07:48:09.918Z,62.00
2023-03-29T07:50:39.977Z,61.40
2023-03-29T07:53:09.093Z,58.90
2023-03-29T07:55:37.869Z,51.30
2023-03-29T07:58:06.203Z,47.10
2023-03-29T08:00:34.313Z,47.20
2023-03-29T08:03:03.792Z,48.30
2023-03-29T08:05:40.544Z,48.00
2023-03-29T08:08:11.505Z,47.40
2023-03-29T08:10:40.116Z,49.20
2023-03-29T08:13:10.697Z,49.60
2023-03-29T08:15:42.176Z,47.80
2023-03-29T08:18:10.380Z,45.10
2023-03-29T08:20:38.560Z,44.20
2023-03-29T08:23:07.189Z,44.30
2023-03-29T08:25:37.259Z,45.30
2023-03-29T08:28:05.848Z,41.20
2023-03-29T08:30:34.205Z,41.40
2023-03-29T08:33:02.533Z,37.80
2023-03-29T08:35:31.065Z,36.60
2023-03-29T08:37:59.363Z,35.30
2023-03-29T08:40:31.206Z,35.50
2023-03-29T08:43:22.720Z,35.20
2023-03-29T08:46:08.476Z,34.50
2023-03-29T08:48:42.675Z,34.20
2023-03-29T08:51:28.868Z,31.90
2023-03-29T08:54:05.159Z,31.60
2023-03-29T08:56:39.728Z,28.30
2023-03-29T08:59:21.642Z,28.30
2023-03-29T09:01:55.124Z,29.30
2023-03-29T09:04:28.750Z,31.20
2023-03-29T09:06:57.886Z,31.70
2023-03-29T09:09:33.520Z,33.50
2023-03-29T09:12:18.210Z,34.70
2023-03-29T09:15:11.892Z,35.60
2023-03-29T09:18:02.442Z,34.90
2023-03-29T09:20:46.217Z,32.40
2023-03-29T09:23:48.378Z,30.50
2023-03-29T09:26:28.454Z,29.70
2023-03-29T09:29:13.470Z,29.60
2023-03-29T09:31:45.549Z,26.90
2023-03-29T09:34:20.909Z,26.90
2023-03-29T09:36:53.770Z,26.20
2023-03-29T09:39:23.701Z,25.40
2023-03-29T09:41:59.701Z,24.40
2023-03-29T09:44:36.520Z,24.30
2023-03-29T09:47:14.502Z,22.90
2023-03-29T09:49:48.622Z,21.90
2023-03-29T09:52:20.942Z,21.80
2023-03-29T09:54:50.466Z,22.30
2023-03-29T09:57:21.419Z,21.90
2023-03-29T09:59:52.574Z,21.30
2023-03-29T10:02:23.111Z,20.80
2023-03-29T10:04:59.027Z,19.80
2023-03-29T10:07:44.578Z,21.50
2023-03-29T10:10:24.265Z,22.20
2023-03-29T10:12:57.930Z,21.40
2023-03-29T10:15:30.395Z,21.10
2023-03-29T10:18:03.458Z,20.70
2023-03-29T10:20:35.719Z,19.30
2023-03-29T10:23:06.654Z,20.30
2023-03-29T10:25:42.274Z,20.80
2023-03-29T10:28:17.660Z,21.20
2023-03-29T10:30:54.408Z,22.50
2023-03-29T10:33:25.722Z,22.60
2023-03-29T10:35:57.659Z,20.10
2023-03-29T10:38:30.247Z,21.20
2023-03-29T10:41:10.132Z,23.30
2023-03-29T10:43:44.014Z,23.40
2023-03-29T10:46:20.790Z,24.20
2023-03-29T10:48:52.935Z,24.30
2023-03-29T10:51:22.407Z,23.60
2023-03-29T10:53:51.092Z,23.30
2023-03-29T10:56:37.120Z,23.90
2023-03-29T10:59:24.354Z,23.30
2023-03-29T11:02:08.638Z,23.00
2023-03-29T11:04:47.098Z,22.90
2023-03-29T11:07:33.875Z,23.70
2023-03-29T11:10:31.909Z,22.30
2023-03-29T11:13:17.401Z,24.30
2023-03-29T11:16:03.350Z,23.80
2023-03-29T11:19:24.894Z,24.00
2023-03-29T11:22:09.545Z,24.50
2023-03-29T11:25:05.075Z,25.60
2023-03-29T11:27:44.950Z,26.40
2023-03-29T11:30:25.165Z,26.00
2023-03-29T11:33:10.695Z,25.50
2023-03-29T11:35:49.739Z,25.50
2023-03-29T11:38:30.599Z,27.80
2023-03-29T11:41:06.944Z,26.80
2023-03-29T11:43:42.792Z,28.40
2023-03-29T11:46:17.961Z,29.00
2023-03-29T11:48:57.295Z,27.40
2023-03-29T11:51:32.483Z,30.40
2023-03-29T11:54:09.401Z,30.30
2023-03-29T11:56:46.190Z,31.40
2023-03-29T11:59:19.713Z,34.10
2023-03-29T12:01:54.781Z,38.40
2023-03-29T12:04:31.887Z,42.20
2023-03-29T12:07:16.461Z,43.00
2023-03-29T12:09:52.365Z,44.60
2023-03-29T12:12:27.911Z,47.70
2023-03-29T12:15:08.148Z,45.80
2023-03-29T12:17:44.704Z,47.40
2023-03-29T12:20:23.420Z,47.80
2023-03-29T12:22:53.835Z,48.90
2023-03-29T12:25:31.814Z,47.90
2023-03-29T12:28:24.456Z,42.00
2023-03-29T12:31:10.656Z,38.70
2023-03-29T12:34:34.223Z,37.80
2023-03-29T12:37:25.226Z,38.00
2023-03-29T12:39:55.059Z,36.30
2023-03-29T12:42:25.777Z,37.80
2023-03-29T12:45:02.062Z,36.50
2023-03-29T12:47:43.619Z,34.00
2023-03-29T12:50:29.410Z,32.20
2023-03-29T12:53:19.813Z,28.90
2023-03-29T12:56:08.906Z,29.50
2023-03-29T12:58:55.384Z,30.30
2023-03-29T13:01:29.832Z,32.20
2023-03-29T13:04:18.911Z,32.20
2023-03-29T13:07:03.270Z,34.70
2023-03-29T13:09:37.151Z,35.10
2023-03-29T13:12:18.674Z,34.90
2023-03-29T13:14:53.612Z,34.80
2023-03-29T13:17:32.223Z,33.80
2023-03-29T13:20:32.428Z,35.90
2023-03-29T13:23:27.931Z,35.10
2023-03-29T13:26:21.499Z,35.70
2023-03-29T13:29:22.140Z,32.60
2023-03-29T13:32:07.617Z,31.00
2023-03-29T13:34:50.160Z,30.20
2023-03-29T13:37:37.393Z,28.40
2023-03-29T13:40:29.551Z,31.10
2023-03-29T13:43:02.024Z,29.60
2023-03-29T13:45:36.700Z,30.00
2023-03-29T13:48:23.903Z,29.60
2023-03-29T13:50:57.859Z,28.90
2023-03-29T13:53:34.505Z,28.70
2023-03-29T13:56:03.182Z,27.20
2023-03-29T13:58:45.405Z,27.40
2023-03-29T14:01:29.501Z,26.50
2023-03-29T14:04:00.925Z,25.90
2023-03-29T14:06:34.718Z,27.50
2023-03-29T14:09:09.395Z,26.30
2023-03-29T14:11:38.979Z,24.90
2023-03-29T14:14:09.425Z,26.50
2023-03-29T14:16:42.534Z,26.60
2023-03-29T14:19:21.147Z,28.30
2023-03-29T14:21:53.329Z,29.70
2023-03-29T14:24:27.373Z,28.10
2023-03-29T14:26:56.144Z,29.50
2023-03-29T14:29:25.582Z,30.00
2023-03-29T14:31:54.164Z,30.00
2023-03-29T14:34:24.805Z,32.00
2023-03-29T14:36:54.722Z,30.40
2023-03-29T14:39:24.543Z,29.90
2023-03-29T14:41:55.948Z,30.40
2023-03-29T14:44:30.036Z,29.60
2023-03-29T14:46:59.270Z,29.70
2023-03-29T14:49:30.264Z,28.90
2023-03-29T14:51:59.306Z,28.70
2023-03-29T14:54:31.930Z,28.20
2023-03-29T14:57:06.636Z,28.20
2023-03-29T14:59:40.539Z,26.90
2023-03-29T15:02:25.642Z,26.40
2023-03-29T15:05:03.531Z,27.40
2023-03-29T15:07:37.653Z,27.60
2023-03-29T15:10:08.265Z,27.60
2023-03-29T15:12:45.406Z,28.60
2023-03-29T15:15:15.530Z,28.70
2023-03-29T15:17:51.943Z,28.50
2023-03-29T15:20:27.074Z,29.20
2023-03-29T15:23:00.769Z,29.50
2023-03-29T15:25:34.840Z,30.00
2023-03-29T15:28:03.496Z,29.00
2023-03-29T15:30:40.348Z,30.20
2023-03-29T15:33:34.385Z,29.90
2023-03-29T15:36:08.292Z,30.10
2023-03-29T15:38:44.058Z,30.20
2023-03-29T15:41:15.786Z,30.90
2023-03-29T15:43:45.425Z,31.30
2023-03-29T15:46:15.039Z,31.70
2023-03-29T15:48:44.014Z,32.30
2023-03-29T15:51:15.048Z,32.60
2023-03-29T15:53:43.712Z,33.80
2023-03-29T15:56:23.013Z,34.20
2023-03-29T15:58:51.535Z,32.90
2023-03-29T16:01:35.850Z,33.40
2023-03-29T16:04:06.969Z,33.10
2023-03-29T16:06:38.849Z,32.90
2023-03-29T16:09:09.283Z,35.30
2023-03-29T16:11:38.355Z,35.10
2023-03-29T16:14:19.252Z,36.10
2023-03-29T16:16:48.224Z,34.90
2023-03-29T16:19:16.827Z,35.30
2023-03-29T16:21:47.698Z,36.20
2023-03-29T16:24:24.087Z,36.80
2023-03-29T16:26:56.526Z,37.10
2023-03-29T16:29:25.384Z,37.30
2023-03-29T16:31:56.744Z,37.60
2023-03-29T16:34:27.555Z,37.60
2023-03-29T16:36:57.996Z,35.60
2023-03-29T16:39:27.373Z,35.60
2023-03-29T16:41:56.291Z,35.70
2023-03-29T16:44:27.774Z,35.30
2023-03-29T16:46:58.635Z,35.50
2023-03-29T16:49:28.555Z,36.00
2023-03-29T16:51:59.822Z,36.20
2023-03-29T16:54:31.817Z,37.10
2023-03-29T16:57:02.869Z,37.20
2023-03-29T16:59:31.681Z,37.90
2023-03-29T17:02:00.500Z,38.30
2023-03-29T17:04:29.358Z,38.10
2023-03-29T17:06:59.291Z,38.70
2023-03-29T17:09:29.733Z,37.80
2023-03-29T17:11:59.598Z,38.20
2023-03-29T17:14:27.975Z,38.70
2023-03-29T17:16:56.324Z,38.70
2023-03-29T17:19:25.010Z,38.40
2023-03-29T17:21:53.534Z,38.20
2023-03-29T17:24:24.658Z,37.70
2023-03-29T17:26:53.446Z,37.60
2023-03-29T17:29:22.313Z,38.10
2023-03-29T17:31:52.303Z,38.40
2023-03-29T17:34:21.220Z,39.20
2023-03-29T17:36:53.430Z,38.80
2023-03-29T17:39:25.233Z,39.30
2023-03-29T17:41:54.522Z,38.50
2023-03-29T17:44:23.029Z,39.00
2023-03-29T17:46:51.616Z,39.20
2023-03-29T17:49:19.833Z,38.90
2023-03-29T17:51:48.762Z,40.30
2023-03-29T17:54:18.997Z,42.00
2023-03-29T17:56:50.597Z,44.40
2023-03-29T17:59:19.917Z,46.70
2023-03-29T18:01:48.489Z,47.20
2023-03-29T18:04:17.165Z,47.70
2023-03-29T18:06:46.462Z,46.10
2023-03-29T18:09:17.069Z,46.70
2023-03-29T18:11:46.653Z,50.50
2023-03-29T18:14:17.376Z,48.80
2023-03-29T18:16:45.802Z,49.30
2023-03-29T18:19:14.766Z,49.20
2023-03-29T18:21:43.664Z,50.20
2023-03-29T18:24:12.707Z,49.30
2023-03-29T18:26:42.705Z,50.60
2023-03-29T18:29:11.592Z,52.80
2023-03-29T18:31:43.026Z,55.70
2023-03-29T18:34:12.650Z,60.60
2023-03-29T18:36:41.865Z,62.60
2023-03-29T18:39:11.187Z,64.10
2023-03-29T18:41:39.414Z,62.50
2023-03-29T18:44:07.942Z,65.20
2023-03-29T18:46:36.534Z,71.20
2023-03-29T18:49:07.640Z,70.00
2023-03-29T18:51:36.362Z,73.80
2023-03-29T18:54:05.400Z,72.90
2023-03-29T18:56:33.607Z,64.30
2023-03-29T18:59:05.174Z,57.50
2023-03-29T19:01:34.725Z,52.50
2023-03-29T19:04:03.428Z,49.60
2023-03-29T19:06:34.869Z,47.40
2023-03-29T19:09:05.271Z,46.70
2023-03-29T19:11:36.101Z,45.10
2023-03-29T19:14:08.262Z,44.10
2023-03-29T19:16:37.399Z,41.90
2023-03-29T19:19:07.030Z,40.00
2023-03-29T19:21:39.099Z,38.80
2023-03-29T19:24:09.038Z,38.30
2023-03-29T19:26:41.394Z,38.80
2023-03-29T19:29:10.107Z,37.50
2023-03-29T19:31:38.647Z,37.20
2023-03-29T19:34:09.609Z,36.70
2023-03-29T19:36:39.511Z,36.20
2023-03-29T19:39:08.567Z,35.90
2023-03-29T19:41:40.001Z,35.80
2023-03-29T19:44:10.504Z,35.20
2023-03-29T19:46:38.910Z,35.50
2023-03-29T19:49:08.578Z,36.00
2023-03-29T19:51:39.291Z,36.30
2023-03-29T19:54:08.219Z,36.00
2023-03-29T19:56:37.607Z,36.20
2023-03-29T19:59:06.236Z,36.10
2023-03-29T20:01:34.786Z,36.00
2023-03-29T20:04:03.996Z,36.00
2023-03-29T20:06:32.472Z,36.60
2023-03-29T20:09:05.383Z,35.00
2023-03-29T20:11:34.447Z,35.30
2023-03-29T20:14:03.273Z,34.80
2023-03-29T20:16:34.526Z,34.60
2023-03-29T20:19:03.825Z,34.80
2023-03-29T20:21:33.820Z,35.00
2023-03-29T20:24:04.926Z,35.20
2023-03-29T20:26:33.499Z,35.70
2023-03-29T20:29:02.986Z,36.40
2023-03-29T20:31:33.175Z,36.80
2023-03-29T20:34:02.629Z,37.20
2023-03-29T20:36:33.012Z,37.20
2023-03-29T20:39:04.526Z,36.50
2023-03-29T20:41:38.334Z,36.70
2023-03-29T20:44:08.539Z,37.30
2023-03-29T20:46:39.448Z,38.10
2023-03-29T20:49:09.313Z,38.70
2023-03-29T20:51:39.760Z,39.30
2023-03-29T20:54:12.259Z,39.20
2023-03-29T20:56:42.565Z,39.20
2023-03-29T20:59:12.300Z,39.10
2023-03-29T21:01:41.103Z,38.80
2023-03-29T21:04:10.976Z,39.00
2023-03-29T21:06:39.870Z,39.40
2023-03-29T21:09:09.778Z,39.50
2023-03-29T21:11:38.415Z,40.00
2023-03-29T21:14:06.890Z,40.00
2023-03-29T21:16:35.277Z,40.40
2023-03-29T21:19:03.347Z,40.10
2023-03-29T21:21:33.656Z,39.40
2023-03-29T21:24:02.044Z,37.90
2023-03-29T21:26:32.046Z,37.00
2023-03-29T21:29:00.630Z,37.20
2023-03-29T21:31:30.135Z,40.50
2023-03-29T21:33:58.712Z,44.80
2023-03-29T21:36:27.595Z,44.80
2023-03-29T21:38:56.489Z,45.20
2023-03-29T21:41:25.168Z,45.20
2023-03-29T21:43:55.205Z,47.60
2023-03-29T21:46:24.653Z,51.00
2023-03-29T21:48:52.971Z,44.90
2023-03-29T21:51:21.122Z,47.70
2023-03-29T21:53:49.544Z,55.90
2023-03-29T21:56:17.846Z,63.90
2023-03-29T21:58:46.216Z,74.90
2023-03-29T22:01:16.299Z,94.50
2023-03-29T22:03:44.710Z,98.50
2023-03-29T22:06:16.714Z,97.00
2023-03-29T22:08:46.954Z,99.90
2023-03-29T22:11:17.342Z,99.90
2023-03-29T22:13:46.878Z,99.90
2023-03-29T22:16:18.425Z,99.90
2023-03-29T22:18:50.888Z,99.90
2023-03-29T22:21:23.759Z,99.90
2023-03-29T22:23:55.334Z,99.90
2023-03-29T22:26:27.563Z,99.90
2023-03-29T22:29:00.318Z,99.90
2023-03-29T22:31:33.041Z,99.90
2023-03-29T22:34:02.985Z,99.90
2023-03-29T22:36:33.392Z,99.90
2023-03-29T22:39:02.686Z,99.90
2023-03-29T22:41:31.746Z,99.90
2023-03-29T22:44:02.349Z,99.90
2023-03-29T22:46:33.080Z,99.90
2023-03-29T22:49:02.190Z,99.90
2023-03-29T22:51:31.470Z,99.90
2023-03-29T22:54:00.220Z,99.90
2023-03-29T22:56:29.315Z,99.90
2023-03-29T22:58:57.919Z,99.90
2023-03-29T23:01:26.584Z,99.90
2023-03-29T23:03:56.435Z,99.90
2023-03-29T23:06:40.865Z,99.90
2023-03-29T23:09:09.509Z,99.90
2023-03-29T23:11:37.952Z,99.90
2023-03-29T23:14:06.311Z,99.90
2023-03-29T23:16:35.170Z,99.90
2023-03-29T23:19:03.248Z,99.90
2023-03-29T23:21:31.375Z,99.90
2023-03-29T23:24:01.162Z,99.90
2023-03-29T23:26:29.550Z,99.90
2023-03-29T23:28:58.366Z,99.90
2023-03-29T23:31:26.505Z,99.90
2023-03-29T23:33:55.416Z,99.90
2023-03-29T23:36:23.458Z,99.90
2023-03-29T23:38:52.462Z,99.90
2023-03-29T23:41:22.740Z,99.90
2023-03-29T23:43:52.218Z,99.90
2023-03-29T23:46:20.489Z,99.90
2023-03-29T23:48:50.742Z,99.90
2023-03-29T23:51:23.068Z,99.90
2023-03-29T23:53:51.717Z,99.90
2023-03-29T23:56:21.565Z,99.90
2023-03-29T23:58:49.830Z,99.90
